Time;durP1;ratioP1;P1;durP2;ratioP2;P2;SDS_P1;SDS_P2;PMS_P1;PMS_P2;Temp;Humidity;BMP_temperature;BMP_pressure;BME280_temperature;BME280_humidity;BME280_pressure;Samples;Min_cycle;Max_cycle;Signal;HPM_P1;HPM_P2
2022/08/18 00:00:03;;;;;;;44.40;41.53;;;19.20;99.90;;;;;;4973888;28;20213;-72
2022/08/18 00:02:29;;;;;;;79.57;74.60;;;19.20;99.90;;;;;;4973703;28;20180;-72
2022/08/18 00:04:56;;;;;;;51.60;47.95;;;19.10;99.90;;;;;;4973716;28;20185;-73
2022/08/18 00:07:28;;;;;;;34.50;31.97;;;19.10;99.90;;;;;;4987328;28;20228;-72
2022/08/18 00:09:54;;;;;;;82.17;76.63;;;19.10;99.90;;;;;;4993230;28;20194;-72
2022/08/18 00:12:28;;;;;;;73.05;68.20;;;19.20;99.90;;;;;;4993056;28;20176;-72
2022/08/18 00:14:56;;;;;;;115.83;108.40;;;19.20;99.90;;;;;;4992372;28;20675;-72
2022/08/18 00:17:22;;;;;;;74.70;70.28;;;19.20;99.90;;;;;;4991820;28;20216;-72
2022/08/18 00:19:49;;;;;;;73.37;68.83;;;19.20;99.90;;;;;;4992214;28;20251;-73
2022/08/18 00:22:18;;;;;;;44.75;41.72;;;19.20;99.90;;;;;;4986565;28;20268;-73
2022/08/18 00:24:49;;;;;;;43.27;40.07;;;19.20;99.90;;;;;;4973389;28;20177;-73
2022/08/18 00:27:22;;;;;;;45.38;42.60;;;19.10;99.90;;;;;;4972654;28;20200;-72
2022/08/18 00:29:48;;;;;;;32.70;30.40;;;19.10;99.90;;;;;;4972948;28;20192;-73
2022/08/18 00:32:16;;;;;;;38.60;35.90;;;19.10;99.90;;;;;;4973207;28;20620;-72
2022/08/18 00:34:42;;;;;;;42.83;40.10;;;19.10;99.90;;;;;;4982372;28;20738;-72
2022/08/18 00:37:08;;;;;;;39.83;36.80;;;19.10;99.90;;;;;;4991754;28;20200;-72
2022/08/18 00:39:34;;;;;;;48.40;45.10;;;19.10;99.90;;;;;;4992376;28;20592;-73
2022/08/18 00:42:17;;;;;;;87.93;82.53;;;19.10;99.90;;;;;;4992401;28;20173;-72
2022/08/18 00:44:43;;;;;;;71.73;67.23;;;19.10;99.90;;;;;;4992508;28;20195;-74
2022/08/18 00:47:09;;;;;;;84.80;79.80;;;19.00;99.90;;;;;;4993714;28;20192;-73
2022/08/18 00:49:37;;;;;;;73.37;68.63;;;18.90;99.90;;;;;;5002701;28;20664;-73
2022/08/18 00:52:03;;;;;;;96.50;90.63;;;18.90;99.90;;;;;;4980015;28;20192;-72
2022/08/18 00:54:32;;;;;;;79.23;74.43;;;18.90;99.90;;;;;;4972649;28;20328;-73
2022/08/18 00:57:02;;;;;;;74.78;70.18;;;18.90;99.90;;;;;;4993930;28;20201;-72
2022/08/18 00:59:55;;;;;;;63.93;59.73;;;18.90;99.90;;;;;;4976274;28;20189;-72
2022/08/18 01:02:28;;;;;;;53.13;49.10;;;18.80;99.90;;;;;;4992826;28;20188;-72
2022/08/18 01:05:23;;;;;;;64.67;60.57;;;18.80;99.90;;;;;;4991919;28;20301;-72
2022/08/18 01:07:49;;;;;;;59.45;55.63;;;18.90;99.90;;;;;;4987046;28;20208;-72
2022/08/18 01:10:18;;;;;;;43.63;40.80;;;19.00;99.90;;;;;;4991850;28;20176;-72
2022/08/18 01:12:56;;;;;;;47.87;44.43;;;18.90;99.90;;;;;;4991877;28;20216;-72
2022/08/18 01:15:25;;;;;;;44.80;41.73;;;18.90;99.90;;;;;;4992193;28;20226;-72
2022/08/18 01:23:28;;;;;;;44.40;41.37;;;18.90;99.90;;;;;;4972417;28;20181;-72
2022/08/18 01:25:59;;;;;;;34.87;32.23;;;19.00;99.90;;;;;;4971104;28;20188;-72
2022/08/18 01:28:51;;;;;;;30.53;28.07;;;19.00;99.90;;;;;;4971558;28;20584;-72
2022/08/18 01:31:37;;;;;;;26.73;24.47;;;18.90;99.90;;;;;;4985159;28;20196;-72
2022/08/18 01:34:05;;;;;;;25.40;23.40;;;18.80;99.90;;;;;;4991395;28;20188;-72
2022/08/18 01:36:36;;;;;;;29.27;27.00;;;18.80;99.90;;;;;;4991446;28;20208;-72
2022/08/18 01:39:06;;;;;;;32.43;30.10;;;18.70;99.90;;;;;;4990745;28;20649;-72
2022/08/18 01:41:32;;;;;;;31.90;29.60;;;18.70;99.90;;;;;;4991562;28;20224;-71
2022/08/18 01:44:00;;;;;;;29.53;27.33;;;18.70;99.90;;;;;;4988678;28;20184;-71
2022/08/18 01:46:30;;;;;;;30.53;28.10;;;18.60;99.90;;;;;;4971795;28;20676;-72
2022/08/18 01:49:00;;;;;;;31.63;28.97;;;18.60;99.90;;;;;;4969661;28;20204;-72
2022/08/18 01:51:28;;;;;;;42.40;39.43;;;18.50;99.90;;;;;;4972116;28;20191;-71
2022/08/18 01:53:55;;;;;;;52.35;48.65;;;18.50;99.90;;;;;;4970706;28;20271;-72
2022/08/18 01:56:21;;;;;;;129.03;121.50;;;18.50;99.90;;;;;;4971388;28;20701;-72
2022/08/18 01:58:47;;;;;;;195.90;183.97;;;18.50;99.90;;;;;;4979707;28;20192;-72
2022/08/18 02:01:14;;;;;;;231.10;216.67;;;18.60;99.90;;;;;;4991318;28;20220;-71
2022/08/18 02:03:46;;;;;;;217.27;203.60;;;18.60;99.90;;;;;;4971747;28;20190;-72
2022/08/18 02:06:14;;;;;;;173.23;162.20;;;18.70;99.90;;;;;;4971945;28;20546;-72
2022/08/18 02:08:40;;;;;;;248.20;232.00;;;18.70;99.90;;;;;;4971063;28;20236;-72
2022/08/18 02:11:06;;;;;;;281.67;263.93;;;18.60;99.90;;;;;;4971861;28;20185;-72
2022/08/18 02:13:33;;;;;;;225.63;211.00;;;18.60;99.90;;;;;;4986139;28;20180;-72
2022/08/18 02:16:00;;;;;;;249.47;234.07;;;18.70;99.90;;;;;;4991045;28;20193;-72
2022/08/18 02:18:30;;;;;;;272.87;255.90;;;18.70;99.90;;;;;;4989968;28;20224;-72
2022/08/18 02:20:57;;;;;;;256.63;240.37;;;18.70;99.90;;;;;;4990926;28;20270;-72
2022/08/18 02:23:24;;;;;;;237.43;222.20;;;18.60;99.90;;;;;;4991079;28;20180;-73
2022/08/18 02:25:51;;;;;;;298.80;279.53;;;18.60;99.90;;;;;;4990773;28;20207;-72
2022/08/18 02:28:17;;;;;;;100.83;94.77;;;18.60;99.90;;;;;;4971917;28;20242;-73
2022/08/18 02:30:43;;;;;;;137.17;128.63;;;18.60;99.90;;;;;;4971769;28;20231;-72
2022/08/18 02:33:10;;;;;;;252.80;236.97;;;18.60;99.90;;;;;;4971750;28;20184;-72
2022/08/18 02:35:37;;;;;;;262.50;246.00;;;18.60;99.90;;;;;;4971700;28;20562;-72
2022/08/18 02:38:06;;;;;;;166.17;155.97;;;18.60;99.90;;;;;;4987344;28;20196;-73
2022/08/18 02:40:35;;;;;;;234.63;219.90;;;18.60;99.90;;;;;;4994500;28;20219;-72
2022/08/18 02:43:08;;;;;;;258.03;242.17;;;18.60;99.90;;;;;;4994411;28;20212;-72
2022/08/18 02:45:38;;;;;;;271.03;254.37;;;18.60;99.90;;;;;;4994449;28;20184;-72
2022/08/18 02:48:05;;;;;;;260.43;244.57;;;18.60;99.90;;;;;;4977403;28;20268;-72
2022/08/18 02:50:32;;;;;;;50.37;47.23;;;18.60;99.90;;;;;;4974905;28;20196;-71
2022/08/18 02:53:00;;;;;;;67.33;62.93;;;18.60;99.90;;;;;;4974977;28;20196;-71
2022/08/18 02:55:28;;;;;;;75.47;70.47;;;18.60;99.90;;;;;;4974731;28;20181;-72
2022/08/18 02:57:53;;;;;;;151.87;143.07;;;18.70;99.90;;;;;;4987374;28;20212;-72
2022/08/18 03:00:20;;;;;;;193.00;181.73;;;18.70;99.90;;;;;;4993845;28;20215;-71
2022/08/18 03:02:47;;;;;;;214.40;201.97;;;18.60;99.90;;;;;;4993077;28;20183;-73
2022/08/18 03:05:14;;;;;;;187.83;177.13;;;18.60;99.90;;;;;;4980711;28;20528;-71
2022/08/18 03:07:40;;;;;;;141.23;132.97;;;18.60;99.90;;;;;;4992795;28;20238;-72
2022/08/18 03:10:06;;;;;;;249.20;234.57;;;18.60;99.90;;;;;;4985491;28;20220;-72
2022/08/18 03:12:33;;;;;;;179.23;169.00;;;18.60;99.90;;;;;;4984701;28;20273;-72
2022/08/18 03:15:00;;;;;;;183.67;172.70;;;18.60;99.90;;;;;;4996399;28;20197;-71
2022/08/18 03:17:27;;;;;;;102.17;95.73;;;18.60;99.90;;;;;;4987012;28;20216;-72
2022/08/18 03:19:53;;;;;;;83.63;78.27;;;18.70;99.90;;;;;;4993499;28;20207;-71
2022/08/18 03:22:19;;;;;;;92.50;86.73;;;18.70;99.90;;;;;;5031942;23;20332;-74
2022/08/18 03:24:45;;;;;;;115.87;108.63;;;18.70;99.90;;;;;;5028706;28;20179;-74
2022/08/18 03:27:11;;;;;;;67.87;63.27;;;18.70;99.90;;;;;;5030892;28;20186;-75
2022/08/18 03:29:37;;;;;;;191.73;181.00;;;18.70;99.90;;;;;;5037085;28;20205;-74
2022/08/18 03:32:05;;;;;;;159.40;150.13;;;18.70;99.90;;;;;;5012809;28;20218;-75
2022/08/18 03:34:31;;;;;;;181.93;170.87;;;18.70;99.90;;;;;;5034084;28;20285;-74
2022/08/18 03:36:58;;;;;;;269.50;254.27;;;18.70;99.90;;;;;;5051585;28;20186;-75
2022/08/18 03:39:26;;;;;;;261.40;246.83;;;18.70;99.90;;;;;;5052066;28;20178;-75
2022/08/18 03:41:53;;;;;;;264.67;249.73;;;18.80;99.90;;;;;;5051180;28;20202;-75
2022/08/18 03:44:20;;;;;;;288.63;272.30;;;18.70;99.90;;;;;;5051299;28;20171;-74
2022/08/18 03:46:46;;;;;;;226.87;213.97;;;18.70;99.90;;;;;;5050895;28;20669;-74
2022/08/18 03:49:12;;;;;;;199.53;187.73;;;18.70;99.90;;;;;;5050708;28;20257;-72
2022/08/18 03:51:47;;;;;;;127.87;120.17;;;18.80;99.90;;;;;;5025911;28;20294;-72
2022/08/18 03:54:15;;;;;;;116.43;109.27;;;18.80;99.90;;;;;;5013264;28;20187;-72
2022/08/18 03:56:43;;;;;;;122.00;114.53;;;18.80;99.90;;;;;;5018700;28;20183;-72
2022/08/18 03:59:13;;;;;;;279.27;263.37;;;18.80;99.90;;;;;;5030166;28;20187;-72
2022/08/18 04:01:41;;;;;;;166.27;157.17;;;18.80;99.90;;;;;;5030976;28;20309;-72
2022/08/18 04:04:14;;;;;;;142.80;134.93;;;18.70;99.90;;;;;;5031221;28;20182;-72
2022/08/18 04:06:44;;;;;;;141.70;133.47;;;18.70;99.90;;;;;;5031446;28;20175;-72
2022/08/18 04:09:13;;;;;;;210.73;198.70;;;18.60;99.90;;;;;;5031942;28;20182;-72
2022/08/18 04:11:42;;;;;;;173.53;163.80;;;18.60;99.90;;;;;;5031607;28;20198;-72
2022/08/18 04:14:11;;;;;;;152.87;144.10;;;18.50;99.90;;;;;;5030264;28;20179;-71
2022/08/18 04:16:37;;;;;;;184.13;173.77;;;18.50;99.90;;;;;;5032044;28;20178;-71
2022/08/18 04:19:04;;;;;;;247.70;233.53;;;18.40;99.90;;;;;;5031411;28;20183;-71
2022/08/18 04:21:36;;;;;;;241.00;227.33;;;18.40;99.90;;;;;;5029724;28;20584;-71
2022/08/18 04:24:03;;;;;;;276.57;261.07;;;18.40;99.90;;;;;;5031938;28;20644;-71
2022/08/18 04:26:31;;;;;;;240.77;227.27;;;18.30;99.90;;;;;;5031982;28;20190;-71
2022/08/18 04:28:59;;;;;;;244.17;230.63;;;18.30;99.90;;;;;;5030174;28;20289;-71
2022/08/18 04:31:28;;;;;;;207.13;195.30;;;18.20;99.90;;;;;;5030151;28;20199;-71
2022/08/18 04:33:55;;;;;;;241.50;228.10;;;18.20;99.90;;;;;;5031826;28;20183;-72
2022/08/18 04:36:22;;;;;;;251.57;237.40;;;18.20;99.90;;;;;;5028282;28;20537;-71
2022/08/18 04:38:48;;;;;;;257.03;242.77;;;18.10;99.90;;;;;;5030905;28;20647;-71
2022/08/18 04:41:14;;;;;;;195.30;184.13;;;18.10;99.90;;;;;;5037778;28;20809;-70
2022/08/18 04:43:40;;;;;;;205.47;193.73;;;18.20;99.90;;;;;;5032498;28;20191;-70
2022/08/18 04:46:07;;;;;;;151.73;142.57;;;18.20;99.90;;;;;;5032338;28;20178;-73
2022/08/18 04:48:39;;;;;;;240.77;227.37;;;18.20;99.90;;;;;;5031007;28;20179;-72
2022/08/18 04:51:14;;;;;;;220.97;208.63;;;18.20;99.90;;;;;;5031771;28;20193;-72
2022/08/18 04:53:44;;;;;;;153.53;144.23;;;18.20;99.90;;;;;;5031369;28;20236;-72
2022/08/18 04:56:32;;;;;;;147.77;138.77;;;18.30;99.90;;;;;;5031574;28;20190;-72
2022/08/18 04:59:07;;;;;;;140.67;132.47;;;18.40;99.90;;;;;;5030731;28;20187;-72
2022/08/18 05:01:36;;;;;;;151.00;141.87;;;18.50;99.90;;;;;;5031053;28;20300;-72
2022/08/18 05:04:04;;;;;;;32.85;30.30;;;18.50;99.90;;;;;;5034284;28;20463;-76
2022/08/18 05:06:30;;;;;;;59.67;55.83;;;18.60;99.90;;;;;;5032997;28;20182;-77
2022/08/18 05:08:59;;;;;;;112.93;106.80;;;18.70;99.90;;;;;;5031395;28;20202;-76
2022/08/18 05:11:27;;;;;;;44.40;41.53;;;18.90;99.90;;;;;;5030808;28;20299;-77
2022/08/18 05:13:56;;;;;;;28.97;26.93;;;19.00;99.90;;;;;;5031801;28;20275;-78
2022/08/18 05:16:23;;;;;;;27.57;25.57;;;19.30;99.90;;;;;;5031705;28;20187;-77
2022/08/18 05:18:52;;;;;;;36.50;34.20;;;19.40;99.90;;;;;;5030616;28;20179;-78
2022/08/18 05:21:20;;;;;;;28.67;26.80;;;19.70;99.90;;;;;;5031164;28;20215;-78
2022/08/18 05:23:48;;;;;;;86.73;81.87;;;20.00;99.90;;;;;;5038927;28;20186;-77
2022/08/18 05:26:16;;;;;;;41.35;38.95;;;20.10;99.90;;;;;;5040751;28;20652;-77
2022/08/18 05:28:43;;;;;;;29.73;27.53;;;20.20;99.90;;;;;;5031875;28;20186;-78
2022/08/18 05:31:16;;;;;;;29.88;27.83;;;20.10;99.90;;;;;;5031089;28;20276;-77
2022/08/18 05:33:42;;;;;;;25.42;23.58;;;20.30;99.90;;;;;;5031484;28;20190;-77
2022/08/18 05:36:23;;;;;;;39.28;36.75;;;20.40;99.90;;;;;;5030987;28;20280;-77
2022/08/18 05:39:12;;;;;;;41.60;39.25;;;20.50;99.90;;;;;;5031100;28;20191;-77
2022/08/18 05:41:45;;;;;;;44.08;41.17;;;20.70;99.90;;;;;;5063288;28;20524;-76
2022/08/18 05:44:14;;;;;;;30.08;28.17;;;20.80;99.90;;;;;;5030676;28;20557;-76
2022/08/18 05:46:48;;;;;;;31.17;29.15;;;20.90;99.90;;;;;;5031885;28;20698;-77
2022/08/18 05:49:16;;;;;;;18.35;16.80;;;21.20;99.90;;;;;;5032253;28;20209;-77
2022/08/18 05:51:45;;;;;;;16.65;15.25;;;21.30;99.90;;;;;;5030122;28;20198;-77
2022/08/18 05:57:04;;;;;;;46.85;44.15;;;21.70;99.90;;;;;;5030647;28;20190;-77
2022/08/18 05:59:39;;;;;;;36.40;34.08;;;21.60;99.90;;;;;;5030586;28;20671;-77
2022/08/18 06:02:32;;;;;;;29.00;27.25;;;21.80;99.90;;;;;;5030402;28;20289;-78
2022/08/18 06:05:00;;;;;;;33.00;31.00;;;21.90;99.90;;;;;;5031258;28;20271;-78
2022/08/18 06:07:33;;;;;;;21.52;19.83;;;21.90;99.90;;;;;;5030572;28;20541;-77
2022/08/18 06:09:59;;;;;;;71.38;67.38;;;22.10;99.90;;;;;;5032125;28;20241;-77
2022/08/18 06:12:32;;;;;;;96.57;91.55;;;22.30;99.90;;;;;;5034884;28;20735;-76
2022/08/18 06:15:30;;;;;;;129.95;122.93;;;22.30;99.90;;;;;;5038766;28;20639;-77
2022/08/18 06:18:09;;;;;;;117.75;111.55;;;22.00;99.90;;;;;;5034296;28;20241;-77
2022/08/18 06:20:38;;;;;;;152.88;144.93;;;22.00;99.90;;;;;;5034428;28;20267;-77
2022/08/18 06:23:17;;;;;;;171.82;162.70;;;21.90;99.90;;;;;;5034249;28;20679;-77
2022/08/18 06:26:03;;;;;;;143.38;135.88;;;21.80;99.90;;;;;;5041826;28;20198;-76
2022/08/18 06:28:57;;;;;;;101.07;95.70;;;21.90;99.90;;;;;;5037735;28;20183;-76
2022/08/18 06:31:43;;;;;;;119.35;112.85;;;22.00;99.90;;;;;;5041607;28;20234;-76
2022/08/18 06:34:24;;;;;;;61.03;57.70;;;22.30;99.90;;;;;;5035206;28;20257;-77
2022/08/18 06:37:10;;;;;;;25.50;23.73;;;22.80;99.90;;;;;;5034124;28;20663;-77
2022/08/18 06:39:46;;;;;;;15.75;14.75;;;23.10;99.90;;;;;;5034544;28;20179;-77
2022/08/18 06:42:20;;;;;;;42.78;40.28;;;23.40;99.90;;;;;;5033235;28;20210;-77
2022/08/18 06:44:53;;;;;;;24.55;22.98;;;23.60;99.90;;;;;;5035108;28;20183;-77
2022/08/18 06:47:32;;;;;;;15.07;13.73;;;23.60;99.90;;;;;;5033672;28;20274;-77
2022/08/18 06:50:21;;;;;;;10.35;9.55;;;23.50;99.90;;;;;;5034226;28;20179;-77
2022/08/18 06:52:59;;;;;;;12.82;11.55;;;23.30;99.90;;;;;;5033229;28;20206;-77
2022/08/18 06:55:34;;;;;;;13.35;12.13;;;23.20;99.90;;;;;;5033134;28;20194;-76
2022/08/18 06:58:28;;;;;;;17.48;16.33;;;22.90;99.90;;;;;;5033131;28;20183;-79
2022/08/18 07:01:06;;;;;;;14.75;13.50;;;22.90;99.90;;;;;;5034672;28;20219;-77
2022/08/18 07:03:38;;;;;;;16.33;15.15;;;23.00;99.90;;;;;;5036167;28;20182;-76
2022/08/18 07:06:10;;;;;;;13.27;12.05;;;23.00;99.90;;;;;;5040707;28;20183;-76
2022/08/18 07:08:40;;;;;;;20.60;19.13;;;22.80;99.90;;;;;;5033581;28;20229;-77
2022/08/18 07:11:24;;;;;;;33.03;31.02;;;22.60;99.90;;;;;;5033230;28;20182;-76
2022/08/18 07:13:55;;;;;;;58.00;54.80;;;22.50;99.90;;;;;;5033045;28;20186;-77
2022/08/18 07:16:30;;;;;;;120.43;114.03;;;22.40;99.90;;;;;;5033924;28;20245;-76
2022/08/18 07:19:15;;;;;;;98.00;92.95;;;22.40;99.90;;;;;;5032905;28;20217;-78
2022/08/18 07:21:42;;;;;;;114.45;108.57;;;22.50;99.90;;;;;;5032074;28;20214;-76
2022/08/18 07:24:17;;;;;;;114.75;108.60;;;22.50;99.90;;;;;;5032385;28;20639;-77
2022/08/18 07:26:59;;;;;;;89.10;84.43;;;22.60;99.90;;;;;;5033872;28;20562;-76
2022/08/18 07:29:25;;;;;;;112.15;106.35;;;22.80;99.90;;;;;;5033695;28;20202;-76
2022/08/18 07:31:54;;;;;;;69.93;66.03;;;23.00;99.90;;;;;;5031882;28;20206;-76
2022/08/18 07:34:36;;;;;;;22.30;20.27;;;23.40;99.90;;;;;;5033651;28;20179;-76
2022/08/18 07:37:13;;;;;;;13.90;12.68;;;23.70;99.90;;;;;;5031492;28;20233;-76
2022/08/18 07:40:23;;;;;;;12.73;11.57;;;23.80;99.90;;;;;;5032623;28;20240;-77
2022/08/18 07:43:07;;;;;;;11.90;10.90;;;23.80;99.90;;;;;;5032017;28;20261;-76
2022/08/18 07:45:41;;;;;;;13.18;11.88;;;23.70;99.90;;;;;;5032909;28;20179;-77
2022/08/18 07:48:19;;;;;;;12.38;11.38;;;23.60;99.90;;;;;;5030885;28;20250;-77
2022/08/18 07:51:17;;;;;;;12.52;11.63;;;23.50;99.90;;;;;;5033018;28;20187;-76
2022/08/18 07:54:03;;;;;;;11.07;10.10;;;23.40;99.90;;;;;;5030662;28;20264;-77
2022/08/18 07:56:42;;;;;;;10.85;9.93;;;23.30;99.90;;;;;;5032848;28;20409;-78
2022/08/18 07:59:38;;;;;;;13.63;12.73;;;23.20;99.90;;;;;;5032961;28;20245;-76
2022/08/18 08:02:13;;;;;;;13.38;12.18;;;23.00;99.90;;;;;;5032256;28;20224;-77
2022/08/18 08:04:53;;;;;;;17.13;15.88;;;22.80;99.90;;;;;;5032143;28;20224;-77
2022/08/18 08:07:44;;;;;;;70.55;66.80;;;22.50;99.90;;;;;;5032399;28;20190;-76
2022/08/18 08:10:23;;;;;;;77.82;73.22;;;22.20;99.90;;;;;;5031955;28;20211;-77
2022/08/18 08:13:27;;;;;;;40.75;38.40;;;22.00;99.90;;;;;;5032961;28;20286;-77
2022/08/18 08:16:08;;;;;;;10.57;9.77;;;21.90;99.90;;;;;;5064781;28;20210;-76
2022/08/18 08:18:43;;;;;;;9.93;9.07;;;21.80;99.90;;;;;;5066860;28;20229;-78
2022/08/18 08:21:13;;;;;;;13.63;12.70;;;21.70;99.90;;;;;;5033208;28;20207;-77
2022/08/18 08:23:49;;;;;;;11.68;10.80;;;21.80;99.90;;;;;;5032975;28;20193;-77
2022/08/18 08:26:26;;;;;;;63.60;60.25;;;21.80;99.90;;;;;;5032770;28;20185;-77
2022/08/18 08:29:06;;;;;;;86.45;81.80;;;21.80;99.90;;;;;;5031917;28;20190;-75
2022/08/18 08:31:38;;;;;;;185.85;176.57;;;21.70;99.90;;;;;;5032944;28;20317;-77
2022/08/18 08:34:07;;;;;;;212.30;201.13;;;21.60;99.90;;;;;;5037071;28;20179;-76
2022/08/18 08:36:37;;;;;;;216.95;205.35;;;21.60;99.90;;;;;;5036102;28;20179;-76
2022/08/18 08:39:11;;;;;;;195.93;185.35;;;21.60;99.90;;;;;;5039373;28;20198;-77
2022/08/18 08:42:00;;;;;;;158.70;150.38;;;21.70;99.90;;;;;;5037933;28;20219;-75
2022/08/18 08:44:48;;;;;;;174.25;165.00;;;21.70;99.90;;;;;;5037849;28;20175;-77
2022/08/18 08:47:21;;;;;;;135.45;128.27;;;21.80;99.90;;;;;;5066793;28;20182;-78
2022/08/18 08:49:59;;;;;;;97.85;92.75;;;21.90;99.90;;;;;;5031640;28;20557;-77
2022/08/18 08:52:33;;;;;;;96.07;91.13;;;21.90;99.90;;;;;;5033007;28;20202;-78
2022/08/18 08:55:25;;;;;;;99.93;94.68;;;21.80;99.90;;;;;;5032822;28;20239;-78
2022/08/18 08:58:15;;;;;;;129.25;122.50;;;21.80;99.90;;;;;;5064145;28;20262;-78
2022/08/18 09:00:44;;;;;;;109.50;103.85;;;22.00;99.90;;;;;;5037713;28;20215;-76
2022/08/18 09:03:16;;;;;;;19.42;17.85;;;22.30;99.90;;;;;;5041445;28;20195;-76
2022/08/18 09:06:05;;;;;;;10.20;9.30;;;22.40;99.90;;;;;;5030876;28;20190;-77
2022/08/18 09:08:56;;;;;;;10.93;9.93;;;22.70;99.90;;;;;;5031582;28;20179;-78
2022/08/18 09:11:40;;;;;;;77.30;73.20;;;23.20;99.90;;;;;;5033259;28;20585;-78
2022/08/18 09:14:15;;;;;;;102.72;97.43;;;24.00;99.90;;;;;;5033407;28;20222;-78
2022/08/18 09:16:44;;;;;;;17.25;15.90;;;24.70;99.90;;;;;;5033061;28;20178;-78
2022/08/18 09:19:36;;;;;;;10.80;9.80;;;25.40;99.90;;;;;;5032396;28;20652;-78
2022/08/18 09:22:33;;;;;;;12.63;11.63;;;25.80;99.90;;;;;;5046958;23;20234;-77
2022/08/18 09:25:00;;;;;;;42.03;39.25;;;25.80;99.90;;;;;;5011406;28;20187;-77
2022/08/18 09:27:34;;;;;;;37.70;35.50;;;25.60;99.90;;;;;;5009343;28;20180;-76
2022/08/18 09:30:04;;;;;;;29.65;27.75;;;25.20;99.90;;;;;;5011663;28;20183;-76
2022/08/18 09:32:51;;;;;;;33.58;31.67;;;25.40;99.90;;;;;;5010077;28;20203;-77
2022/08/18 09:35:36;;;;;;;105.57;99.97;;;25.50;99.90;;;;;;5010086;28;20186;-77
2022/08/18 09:41:31;;;;;;;149.25;141.80;;;26.00;99.90;;;;;;5011169;28;20219;-77
2022/08/18 09:44:11;;;;;;;24.75;23.25;;;27.10;99.90;;;;;;5010077;28;20176;-76
2022/08/18 09:46:42;;;;;;;15.35;14.35;;;28.00;99.90;;;;;;5010060;28;20270;-76
2022/08/18 09:49:24;;;;;;;35.90;33.78;;;27.80;99.90;;;;;;5013021;28;20179;-76
2022/08/18 09:51:52;;;;;;;21.42;19.85;;;26.90;99.90;;;;;;5013959;28;20210;-76
2022/08/18 09:54:26;;;;;;;34.88;32.80;;;26.20;99.90;;;;;;5015584;28;20187;-76
2022/08/18 09:57:15;;;;;;;40.97;38.60;;;26.20;99.90;;;;;;5015172;28;20191;-74
2022/08/18 09:59:44;;;;;;;30.90;28.92;;;26.20;99.90;;;;;;5014988;28;20180;-74
2022/08/18 10:02:13;;;;;;;27.35;25.20;;;26.20;99.90;;;;;;5013807;28;20628;-74
2022/08/18 10:04:50;;;;;;;28.42;26.65;;;26.20;99.90;;;;;;5015188;28;20180;-75
2022/08/18 10:07:32;;;;;;;53.97;51.08;;;26.10;99.90;;;;;;5013261;28;20190;-76
2022/08/18 10:10:17;;;;;;;59.03;55.45;;;25.80;99.90;;;;;;5015990;28;20187;-76
2022/08/18 10:13:05;;;;;;;55.35;52.30;;;25.60;99.90;;;;;;5015487;28;20211;-77
2022/08/18 10:15:42;;;;;;;39.92;37.65;;;25.80;99.90;;;;;;5015304;28;20180;-76
2022/08/18 10:18:46;;;;;;;68.40;64.60;;;26.20;99.90;;;;;;5014049;28;20211;-76
2022/08/18 10:21:17;;;;;;;38.90;36.63;;;26.50;99.90;;;;;;4981103;28;20227;-77
2022/08/18 10:23:53;;;;;;;26.50;24.77;;;26.90;99.90;;;;;;5014447;28;20219;-76
2022/08/18 10:26:32;;;;;;;86.35;81.65;;;27.10;99.90;;;;;;5014805;28;20187;-76
2022/08/18 10:29:04;;;;;;;71.00;67.22;;;27.00;99.90;;;;;;5013549;28;20206;-76
2022/08/18 10:31:50;;;;;;;74.60;70.72;;;26.80;99.90;;;;;;5013494;28;20266;-76
2022/08/18 10:34:40;;;;;;;21.40;19.98;;;27.50;99.90;;;;;;5013556;28;20183;-76
2022/08/18 10:37:13;;;;;;;10.95;9.93;;;28.80;99.90;;;;;;5012791;28;21002;-76
2022/08/18 10:39:39;;;;;;;14.07;12.75;;;29.90;99.90;;;;;;5014463;28;20609;-76
2022/08/18 10:42:47;;;;;;;18.48;17.23;;;30.60;99.90;;;;;;5018583;28;20211;-76
2022/08/18 10:45:26;;;;;;;14.90;13.90;;;31.00;99.90;;;;;;4981964;28;20565;-76
2022/08/18 10:48:15;;;;;;;21.77;20.38;;;32.10;99.90;;;;;;4956277;28;20720;-76
2022/08/18 10:51:02;;;;;;;23.33;21.67;;;31.10;99.90;;;;;;4998084;28;20253;-76
2022/08/18 10:53:57;;;;;;;22.55;20.90;;;31.00;99.90;;;;;;5012977;28;20217;-76
2022/08/18 10:56:52;;;;;;;13.23;12.13;;;31.40;99.90;;;;;;5014179;28;20184;-76
2022/08/18 10:59:42;;;;;;;11.98;11.07;;;32.20;99.90;;;;;;5011860;28;20202;-76
2022/08/18 11:02:17;;;;;;;11.30;10.48;;;32.70;98.60;;;;;;5013854;28;20211;-76
2022/08/18 11:04:50;;;;;;;10.65;9.65;;;33.30;97.80;;;;;;5014189;28;20207;-76
2022/08/18 11:07:23;;;;;;;12.90;11.80;;;33.40;97.40;;;;;;5013582;28;20595;-75
2022/08/18 11:09:52;;;;;;;12.65;11.57;;;33.80;96.20;;;;;;5014061;28;20271;-75
2022/08/18 11:12:58;;;;;;;23.38;21.88;;;33.10;96.40;;;;;;5012950;28;20223;-76
2022/08/18 11:15:46;;;;;;;10.98;9.88;;;32.40;95.30;;;;;;5014025;28;20183;-75
2022/08/18 11:18:31;;;;;;;11.00;10.05;;;31.90;96.80;;;;;;5013388;28;20176;-77
2022/08/18 11:21:34;;;;;;;11.70;10.70;;;31.70;97.50;;;;;;5013684;28;20212;-75
2022/08/18 11:24:06;;;;;;;10.65;9.55;;;31.30;98.10;;;;;;5012698;28;20644;-76
2022/08/18 11:26:35;;;;;;;11.40;10.40;;;30.90;97.60;;;;;;5013889;28;20266;-75
2022/08/18 11:29:35;;;;;;;11.27;9.70;;;31.20;97.00;;;;;;5013060;28;20175;-76
2022/08/18 11:32:19;;;;;;;10.65;9.18;;;32.30;94.70;;;;;;5013717;28;20199;-76
2022/08/18 11:35:11;;;;;;;11.02;10.23;;;32.90;95.20;;;;;;5013594;28;20302;-76
2022/08/18 11:37:40;;;;;;;36.80;34.47;;;33.20;95.00;;;;;;5012655;28;20542;-75
2022/08/18 11:40:09;;;;;;;49.30;46.58;;;33.70;92.90;;;;;;5012181;28;20756;-77
2022/08/18 11:42:40;;;;;;;21.33;19.42;;;32.70;93.50;;;;;;5012248;28;20619;-76
2022/08/18 11:45:19;;;;;;;15.73;14.43;;;31.20;95.50;;;;;;5012165;28;20567;-76
2022/08/18 11:48:10;;;;;;;20.88;19.45;;;29.90;97.10;;;;;;5012348;28;20266;-76
2022/08/18 11:50:47;;;;;;;10.25;9.50;;;29.80;97.00;;;;;;5013180;28;20175;-75
2022/08/18 11:53:33;;;;;;;12.52;11.27;;;29.80;97.10;;;;;;5012326;28;20217;-75
2022/08/18 11:56:13;;;;;;;19.85;18.40;;;29.50;97.40;;;;;;5011868;28;20184;-76
2022/08/18 11:58:48;;;;;;;14.02;12.93;;;29.80;97.40;;;;;;5012323;28;20604;-76
2022/08/18 12:01:26;;;;;;;10.55;9.75;;;30.10;96.20;;;;;;5011986;28;20211;-75
2022/08/18 12:03:53;;;;;;;11.68;10.57;;;30.60;95.30;;;;;;5011698;28;20193;-75
2022/08/18 12:06:28;;;;;;;9.32;8.73;;;31.20;95.30;;;;;;5012932;28;20242;-75
2022/08/18 12:09:02;;;;;;;12.13;11.27;;;31.70;94.20;;;;;;5011223;28;20662;-75
2022/08/18 12:11:37;;;;;;;11.93;10.95;;;31.20;94.80;;;;;;5010884;28;20186;-75
2022/08/18 12:14:15;;;;;;;12.18;11.38;;;31.20;93.80;;;;;;5012180;28;20193;-75
2022/08/18 12:16:42;;;;;;;13.60;12.32;;;31.10;94.40;;;;;;5011454;28;20205;-74
2022/08/18 12:19:11;;;;;;;11.90;10.75;;;31.50;93.20;;;;;;5012361;28;20195;-75
2022/08/18 12:22:23;;;;;;;10.23;9.32;;;31.70;93.10;;;;;;5013380;28;20207;-75
2022/08/18 12:24:49;;;;;;;27.75;26.05;;;32.40;93.50;;;;;;5008652;28;20258;-76
2022/08/18 12:27:17;;;;;;;41.10;38.92;;;32.70;92.40;;;;;;5012489;28;20791;-75
2022/08/18 12:29:43;;;;;;;20.13;18.83;;;32.80;91.20;;;;;;5012774;28;20278;-76
2022/08/18 12:32:10;;;;;;;11.52;10.65;;;33.50;89.20;;;;;;5012269;28;20247;-76
2022/08/18 12:34:36;;;;;;;12.68;11.77;;;34.20;85.10;;;;;;5012507;28;20180;-76
2022/08/18 12:37:03;;;;;;;13.98;11.10;;;34.10;86.40;;;;;;5010902;28;20737;-75
2022/08/18 12:39:30;;;;;;;16.27;15.20;;;34.00;85.00;;;;;;5011555;28;20183;-75
2022/08/18 12:41:57;;;;;;;13.30;12.43;;;33.60;86.30;;;;;;5012093;28;20605;-75
2022/08/18 12:44:24;;;;;;;32.28;30.30;;;32.80;88.20;;;;;;5011019;28;20266;-76
2022/08/18 12:46:51;;;;;;;46.70;44.17;;;31.60;90.10;;;;;;5011869;28;20187;-77
2022/08/18 12:49:21;;;;;;;49.60;46.85;;;30.90;91.00;;;;;;5011386;28;20179;-77
2022/08/18 12:51:47;;;;;;;12.05;10.93;;;30.80;92.30;;;;;;5012617;28;20202;-77
2022/08/18 12:54:13;;;;;;;12.18;11.38;;;30.30;93.00;;;;;;5011990;28;20176;-75
2022/08/18 12:56:41;;;;;;;14.13;12.93;;;30.40;93.00;;;;;;5011863;28;20237;-75
2022/08/18 12:59:09;;;;;;;11.00;10.30;;;30.60;91.80;;;;;;5010274;28;20183;-75
2022/08/18 13:01:37;;;;;;;16.38;10.05;;;30.70;91.90;;;;;;5011713;28;20219;-76
2022/08/18 13:04:04;;;;;;;11.55;10.65;;;30.20;92.10;;;;;;5010777;28;20556;-76
2022/08/18 13:06:33;;;;;;;11.40;10.38;;;30.50;91.80;;;;;;5011683;28;20179;-78